sensor_id;sensor_type;location;lat;lon;timestamp;pressure;altitude;pressure_sealevel;temperature;humidity
61345;BME280;47216;42.656;23.232;2022-09-20T00:01:48;94017.69;;;10.42;66.47
61345;BME280;47216;42.656;23.232;2022-09-20T00:04:15;94017.78;;;10.52;66.22
61345;BME280;47216;42.656;23.232;2022-09-20T00:06:45;94026.00;;;10.61;66.30
61345;BME280;47216;42.656;23.232;2022-09-20T00:09:14;94025.66;;;10.58;64.81
61345;BME280;47216;42.656;23.232;2022-09-20T00:11:41;94024.78;;;10.47;65.47
61345;BME280;47216;42.656;23.232;2022-09-20T00:14:09;94018.03;;;10.29;67.52
61345;BME280;47216;42.656;23.232;2022-09-20T00:16:39;94016.75;;;10.32;65.28
61345;BME280;47216;42.656;23.232;2022-09-20T00:19:06;94016.88;;;10.25;65.05
61345;BME280;47216;42.656;23.232;2022-09-20T00:21:34;94016.88;;;10.25;64.85
61345;BME280;47216;42.656;23.232;2022-09-20T00:24:02;94016.03;;;10.36;62.97
61345;BME280;47216;42.656;23.232;2022-09-20T00:26:31;94011.00;;;10.13;64.70
61345;BME280;47216;42.656;23.232;2022-09-20T00:28:58;94010.91;;;10.24;64.20
61345;BME280;47216;42.656;23.232;2022-09-20T00:31:26;94019.56;;;10.47;64.10
61345;BME280;47216;42.656;23.232;2022-09-20T00:33:53;94021.28;;;10.41;63.89
61345;BME280;47216;42.656;23.232;2022-09-20T00:36:38;94010.69;;;10.48;64.67
61345;BME280;47216;42.656;23.232;2022-09-20T00:39:05;94012.16;;;10.22;63.75
61345;BME280;47216;42.656;23.232;2022-09-20T00:41:33;94010.34;;;10.22;64.20
61345;BME280;47216;42.656;23.232;2022-09-20T00:44:00;94005.13;;;10.22;64.59
61345;BME280;47216;42.656;23.232;2022-09-20T00:46:34;94004.31;;;10.00;65.63
61345;BME280;47216;42.656;23.232;2022-09-20T00:49:09;94015.03;;;10.03;65.46
61345;BME280;47216;42.656;23.232;2022-09-20T00:51:39;94027.06;;;9.71;65.26
61345;BME280;47216;42.656;23.232;2022-09-20T00:54:08;94020.44;;;9.80;64.82
61345;BME280;47216;42.656;23.232;2022-09-20T00:56:39;94010.88;;;9.85;63.81
61345;BME280;47216;42.656;23.232;2022-09-20T00:59:12;94011.59;;;9.81;64.66
61345;BME280;47216;42.656;23.232;2022-09-20T01:01:41;94013.47;;;9.85;64.37
61345;BME280;47216;42.656;23.232;2022-09-20T01:04:09;94007.50;;;9.85;63.41
61345;BME280;47216;42.656;23.232;2022-09-20T01:06:39;94002.44;;;9.78;63.10
61345;BME280;47216;42.656;23.232;2022-09-20T01:09:07;94001.50;;;9.84;62.59
61345;BME280;47216;42.656;23.232;2022-09-20T01:11:37;94009.47;;;9.78;63.17
61345;BME280;47216;42.656;23.232;2022-09-20T01:14:05;94012.75;;;9.90;61.79
61345;BME280;47216;42.656;23.232;2022-09-20T01:16:33;94010.47;;;9.77;61.85
61345;BME280;47216;42.656;23.232;2022-09-20T01:19:10;94017.59;;;9.64;62.40
61345;BME280;47216;42.656;23.232;2022-09-20T01:21:39;94017.81;;;9.63;62.99
61345;BME280;47216;42.656;23.232;2022-09-20T01:24:12;94018.28;;;9.77;62.86
61345;BME280;47216;42.656;23.232;2022-09-20T01:26:56;94009.53;;;9.83;61.69
61345;BME280;47216;42.656;23.232;2022-09-20T01:29:36;94001.78;;;9.88;62.27
61345;BME280;47216;42.656;23.232;2022-09-20T01:32:11;93997.38;;;9.88;62.89
61345;BME280;47216;42.656;23.232;2022-09-20T01:34:42;93995.97;;;9.81;62.33
61345;BME280;47216;42.656;23.232;2022-09-20T01:37:16;94005.59;;;9.80;62.48
61345;BME280;47216;42.656;23.232;2022-09-20T01:39:53;94013.00;;;9.72;63.25
61345;BME280;47216;42.656;23.232;2022-09-20T01:42:31;94007.31;;;9.75;62.31
61345;BME280;47216;42.656;23.232;2022-09-20T01:45:03;94011.38;;;9.82;62.27
61345;BME280;47216;42.656;23.232;2022-09-20T01:47:38;94016.34;;;9.67;62.17
61345;BME280;47216;42.656;23.232;2022-09-20T01:50:14;94025.31;;;9.42;61.57
61345;BME280;47216;42.656;23.232;2022-09-20T01:53:30;94025.69;;;9.34;62.05
61345;BME280;47216;42.656;23.232;2022-09-20T01:56:30;94012.19;;;9.20;62.91
61345;BME280;47216;42.656;23.232;2022-09-20T01:59:18;94013.22;;;9.19;64.84
61345;BME280;47216;42.656;23.232;2022-09-20T02:02:08;94013.13;;;9.14;64.85
61345;BME280;47216;42.656;23.232;2022-09-20T02:05:29;94007.31;;;9.24;64.51
61345;BME280;47216;42.656;23.232;2022-09-20T02:08:07;94000.88;;;9.27;65.32
61345;BME280;47216;42.656;23.232;2022-09-20T02:11:04;93988.38;;;9.29;64.57
61345;BME280;47216;42.656;23.232;2022-09-20T02:13:43;93985.19;;;8.93;65.70
61345;BME280;47216;42.656;23.232;2022-09-20T02:16:45;93997.03;;;8.72;66.15
61345;BME280;47216;42.656;23.232;2022-09-20T02:19:29;93996.78;;;8.73;66.22
61345;BME280;47216;42.656;23.232;2022-09-20T02:22:09;93996.69;;;8.68;66.78
61345;BME280;47216;42.656;23.232;2022-09-20T02:24:44;93997.25;;;8.70;66.17
61345;BME280;47216;42.656;23.232;2022-09-20T02:27:22;94007.22;;;8.61;66.52
61345;BME280;47216;42.656;23.232;2022-09-20T02:30:02;94006.66;;;8.59;66.67
61345;BME280;47216;42.656;23.232;2022-09-20T02:32:57;94012.44;;;8.50;66.74
61345;BME280;47216;42.656;23.232;2022-09-20T02:35:40;94016.75;;;8.56;67.87
61345;BME280;47216;42.656;23.232;2022-09-20T02:38:19;94011.56;;;8.44;67.06
61345;BME280;47216;42.656;23.232;2022-09-20T02:41:03;94011.44;;;8.51;68.11
61345;BME280;47216;42.656;23.232;2022-09-20T02:43:39;94006.13;;;8.46;67.87
61345;BME280;47216;42.656;23.232;2022-09-20T02:46:13;94010.63;;;8.38;68.47
61345;BME280;47216;42.656;23.232;2022-09-20T02:48:46;94015.44;;;8.41;68.90
61345;BME280;47216;42.656;23.232;2022-09-20T02:51:22;94017.78;;;8.31;69.53
61345;BME280;47216;42.656;23.232;2022-09-20T02:54:00;94021.72;;;8.22;69.18
61345;BME280;47216;42.656;23.232;2022-09-20T02:56:36;94016.34;;;8.12;70.52
61345;BME280;47216;42.656;23.232;2022-09-20T02:59:13;94024.47;;;8.04;69.83
61345;BME280;47216;42.656;23.232;2022-09-20T03:01:51;94014.66;;;7.94;70.29
61345;BME280;47216;42.656;23.232;2022-09-20T03:04:32;94009.13;;;7.90;71.06
61345;BME280;47216;42.656;23.232;2022-09-20T03:07:11;94009.56;;;7.87;70.66
61345;BME280;47216;42.656;23.232;2022-09-20T03:09:46;94017.94;;;7.89;71.25
61345;BME280;47216;42.656;23.232;2022-09-20T03:12:27;94013.66;;;7.95;71.61
61345;BME280;47216;42.656;23.232;2022-09-20T03:15:06;94023.69;;;7.91;71.11
61345;BME280;47216;42.656;23.232;2022-09-20T03:17:44;94017.13;;;7.89;71.27
61345;BME280;47216;42.656;23.232;2022-09-20T03:20:22;94020.63;;;7.71;71.48
61345;BME280;47216;42.656;23.232;2022-09-20T03:23:00;94023.69;;;7.68;72.17
61345;BME280;47216;42.656;23.232;2022-09-20T03:25:40;94016.31;;;7.65;72.51
61345;BME280;47216;42.656;23.232;2022-09-20T03:28:33;94025.91;;;7.52;73.14
61345;BME280;47216;42.656;23.232;2022-09-20T03:31:10;94027.34;;;7.36;72.68
61345;BME280;47216;42.656;23.232;2022-09-20T03:33:45;94028.47;;;7.29;73.15
61345;BME280;47216;42.656;23.232;2022-09-20T03:36:27;94037.84;;;7.42;72.45
61345;BME280;47216;42.656;23.232;2022-09-20T03:39:18;94032.88;;;7.40;72.75
61345;BME280;47216;42.656;23.232;2022-09-20T03:42:01;94035.03;;;7.43;72.28
61345;BME280;47216;42.656;23.232;2022-09-20T03:44:58;94038.00;;;7.58;72.29
61345;BME280;47216;42.656;23.232;2022-09-20T03:47:42;94039.66;;;7.53;72.01
61345;BME280;47216;42.656;23.232;2022-09-20T03:50:25;94036.06;;;7.54;72.13
61345;BME280;47216;42.656;23.232;2022-09-20T03:53:26;94029.72;;;7.38;72.45
61345;BME280;47216;42.656;23.232;2022-09-20T03:56:12;94030.84;;;7.30;73.08
61345;BME280;47216;42.656;23.232;2022-09-20T03:58:54;94028.91;;;7.26;73.31
61345;BME280;47216;42.656;23.232;2022-09-20T04:01:41;94034.53;;;7.23;73.10
61345;BME280;47216;42.656;23.232;2022-09-20T04:04:13;94035.44;;;7.17;73.03
61345;BME280;47216;42.656;23.232;2022-09-20T04:07:08;94032.38;;;7.20;72.70
61345;BME280;47216;42.656;23.232;2022-09-20T04:09:46;94045.53;;;7.06;73.30
61345;BME280;47216;42.656;23.232;2022-09-20T04:12:26;94048.44;;;6.98;73.88
61345;BME280;47216;42.656;23.232;2022-09-20T04:15:04;94054.03;;;6.95;73.98
61345;BME280;47216;42.656;23.232;2022-09-20T04:17:44;94057.59;;;7.01;74.41
61345;BME280;47216;42.656;23.232;2022-09-20T04:20:16;94048.84;;;6.95;74.17
61345;BME280;47216;42.656;23.232;2022-09-20T04:22:48;94051.59;;;7.00;74.02
61345;BME280;47216;42.656;23.232;2022-09-20T04:25:18;94053.84;;;6.97;73.91
61345;BME280;47216;42.656;23.232;2022-09-20T04:27:50;94061.09;;;7.06;73.70
61345;BME280;47216;42.656;23.232;2022-09-20T04:30:20;94060.66;;;7.09;73.69
61345;BME280;47216;42.656;23.232;2022-09-20T04:32:54;94065.13;;;7.02;73.92
61345;BME280;47216;42.656;23.232;2022-09-20T04:35:32;94062.06;;;6.93;73.64
61345;BME280;47216;42.656;23.232;2022-09-20T04:38:19;94070.97;;;6.98;73.76
61345;BME280;47216;42.656;23.232;2022-09-20T04:41:06;94074.63;;;7.08;73.54
61345;BME280;47216;42.656;23.232;2022-09-20T04:47:14;94063.50;;;7.20;72.65
61345;BME280;47216;42.656;23.232;2022-09-20T04:50:11;94062.75;;;7.31;72.37
61345;BME280;47216;42.656;23.232;2022-09-20T04:55:53;94067.22;;;7.66;70.92
61345;BME280;47216;42.656;23.232;2022-09-20T04:58:48;94045.59;;;7.84;71.10
61345;BME280;47216;42.656;23.232;2022-09-20T05:08:24;94052.47;;;8.25;69.20
61345;BME280;47216;42.656;23.232;2022-09-20T05:11:12;94055.28;;;8.35;68.04
61345;BME280;47216;42.656;23.232;2022-09-20T05:14:00;94067.72;;;8.45;69.08
61345;BME280;47216;42.656;23.232;2022-09-20T05:16:46;94068.47;;;8.69;67.90
61345;BME280;47216;42.656;23.232;2022-09-20T05:19:24;94071.81;;;8.81;66.44
61345;BME280;47216;42.656;23.232;2022-09-20T05:22:11;94072.84;;;8.80;67.29
61345;BME280;47216;42.656;23.232;2022-09-20T05:25:13;94076.69;;;8.78;66.58
61345;BME280;47216;42.656;23.232;2022-09-20T05:27:52;94076.56;;;8.84;66.56
61345;BME280;47216;42.656;23.232;2022-09-20T05:30:25;94075.03;;;9.00;65.51
61345;BME280;47216;42.656;23.232;2022-09-20T05:33:03;94067.84;;;9.19;65.30
61345;BME280;47216;42.656;23.232;2022-09-20T05:35:40;94068.34;;;9.33;64.77
61345;BME280;47216;42.656;23.232;2022-09-20T05:38:16;94066.06;;;9.37;63.92
61345;BME280;47216;42.656;23.232;2022-09-20T05:41:01;94068.41;;;9.50;63.64
61345;BME280;47216;42.656;23.232;2022-09-20T05:43:34;94064.84;;;9.56;63.82
61345;BME280;47216;42.656;23.232;2022-09-20T05:46:13;94074.88;;;9.64;64.52
61345;BME280;47216;42.656;23.232;2022-09-20T05:48:54;94074.72;;;9.88;62.69
61345;BME280;47216;42.656;23.232;2022-09-20T05:51:32;94067.53;;;9.95;62.85
61345;BME280;47216;42.656;23.232;2022-09-20T05:54:23;94068.41;;;10.18;61.94
61345;BME280;47216;42.656;23.232;2022-09-20T05:56:58;94064.03;;;10.40;61.28
61345;BME280;47216;42.656;23.232;2022-09-20T05:59:42;94064.34;;;10.44;61.42
61345;BME280;47216;42.656;23.232;2022-09-20T06:02:21;94069.44;;;10.56;61.13
61345;BME280;47216;42.656;23.232;2022-09-20T06:04:59;94070.06;;;10.63;60.57
61345;BME280;47216;42.656;23.232;2022-09-20T06:07:36;94069.69;;;10.54;60.81
61345;BME280;47216;42.656;23.232;2022-09-20T06:13:04;94067.03;;;10.71;61.01
61345;BME280;47216;42.656;23.232;2022-09-20T06:15:42;94074.63;;;10.94;60.65
61345;BME280;47216;42.656;23.232;2022-09-20T06:18:20;94061.16;;;11.03;60.08
61345;BME280;47216;42.656;23.232;2022-09-20T06:20:56;94072.69;;;11.07;59.97
61345;BME280;47216;42.656;23.232;2022-09-20T06:23:25;94072.66;;;11.29;59.39
61345;BME280;47216;42.656;23.232;2022-09-20T06:25:55;94064.84;;;11.07;59.22
61345;BME280;47216;42.656;23.232;2022-09-20T06:28:28;94063.34;;;10.89;59.76
61345;BME280;47216;42.656;23.232;2022-09-20T06:30:56;94070.06;;;11.07;59.44
61345;BME280;47216;42.656;23.232;2022-09-20T06:33:24;94065.66;;;11.34;59.02
61345;BME280;47216;42.656;23.232;2022-09-20T06:35:55;94072.44;;;11.35;59.41
61345;BME280;47216;42.656;23.232;2022-09-20T06:38:52;94069.50;;;11.54;59.14
61345;BME280;47216;42.656;23.232;2022-09-20T06:41:43;94066.22;;;11.69;58.93
61345;BME280;47216;42.656;23.232;2022-09-20T06:44:10;94063.94;;;11.77;58.46
61345;BME280;47216;42.656;23.232;2022-09-20T06:46:37;94075.91;;;11.73;58.08
61345;BME280;47216;42.656;23.232;2022-09-20T06:49:06;94070.06;;;11.61;57.98
61345;BME280;47216;42.656;23.232;2022-09-20T06:51:35;94077.56;;;11.52;58.43
61345;BME280;47216;42.656;23.232;2022-09-20T06:54:04;94084.06;;;11.50;58.49
61345;BME280;47216;42.656;23.232;2022-09-20T06:56:33;94077.09;;;11.55;58.49
61345;BME280;47216;42.656;23.232;2022-09-20T06:59:04;94081.06;;;11.63;58.04
61345;BME280;47216;42.656;23.232;2022-09-20T07:01:34;94083.16;;;11.66;57.35
61345;BME280;47216;42.656;23.232;2022-09-20T07:04:01;94088.56;;;11.54;57.40
61345;BME280;47216;42.656;23.232;2022-09-20T07:06:28;94079.94;;;11.54;57.37
61345;BME280;47216;42.656;23.232;2022-09-20T07:08:55;94090.88;;;11.51;57.54
61345;BME280;47216;42.656;23.232;2022-09-20T07:11:22;94088.41;;;11.12;59.24
61345;BME280;47216;42.656;23.232;2022-09-20T07:13:50;94086.81;;;11.11;59.62
61345;BME280;47216;42.656;23.232;2022-09-20T07:16:19;94087.84;;;11.10;60.82
61345;BME280;47216;42.656;23.232;2022-09-20T07:18:47;94090.81;;;11.19;59.60
61345;BME280;47216;42.656;23.232;2022-09-20T07:21:16;94095.44;;;11.39;59.42
61345;BME280;47216;42.656;23.232;2022-09-20T07:23:44;94092.06;;;11.65;58.66
61345;BME280;47216;42.656;23.232;2022-09-20T07:26:17;94095.09;;;11.84;58.13
61345;BME280;47216;42.656;23.232;2022-09-20T07:28:44;94091.78;;;11.94;57.85
61345;BME280;47216;42.656;23.232;2022-09-20T07:31:11;94084.50;;;11.96;57.31
61345;BME280;47216;42.656;23.232;2022-09-20T07:33:39;94080.34;;;12.00;56.58
61345;BME280;47216;42.656;23.232;2022-09-20T07:36:06;94078.81;;;12.04;55.61
61345;BME280;47216;42.656;23.232;2022-09-20T07:38:33;94088.66;;;11.92;56.32
61345;BME280;47216;42.656;23.232;2022-09-20T07:41:01;94091.31;;;11.70;56.54
61345;BME280;47216;42.656;23.232;2022-09-20T07:43:28;94085.63;;;11.78;56.83
61345;BME280;47216;42.656;23.232;2022-09-20T07:45:56;94088.97;;;11.73;57.67
61345;BME280;47216;42.656;23.232;2022-09-20T07:48:24;94086.34;;;11.68;57.68
61345;BME280;47216;42.656;23.232;2022-09-20T07:50:53;94076.56;;;11.86;58.08
61345;BME280;47216;42.656;23.232;2022-09-20T07:53:21;94086.13;;;12.02;56.78
61345;BME280;47216;42.656;23.232;2022-09-20T07:55:58;94084.63;;;11.84;56.18
61345;BME280;47216;42.656;23.232;2022-09-20T07:58:26;94081.78;;;11.86;56.98
61345;BME280;47216;42.656;23.232;2022-09-20T08:00:53;94079.81;;;11.98;57.40
61345;BME280;47216;42.656;23.232;2022-09-20T08:03:20;94075.25;;;12.15;57.35
61345;BME280;47216;42.656;23.232;2022-09-20T08:05:48;94080.84;;;12.29;56.44
61345;BME280;47216;42.656;23.232;2022-09-20T08:08:16;94063.91;;;12.47;56.10
61345;BME280;47216;42.656;23.232;2022-09-20T08:10:44;94068.59;;;12.40;56.21
61345;BME280;47216;42.656;23.232;2022-09-20T08:13:11;94072.41;;;12.65;55.94
61345;BME280;47216;42.656;23.232;2022-09-20T08:15:38;94072.84;;;12.51;55.14
61345;BME280;47216;42.656;23.232;2022-09-20T08:18:05;94076.09;;;12.26;56.19
61345;BME280;47216;42.656;23.232;2022-09-20T08:20:35;94079.03;;;12.35;54.86
61345;BME280;47216;42.656;23.232;2022-09-20T08:23:03;94077.94;;;12.31;56.04
61345;BME280;47216;42.656;23.232;2022-09-20T08:25:31;94083.19;;;12.31;55.70
61345;BME280;47216;42.656;23.232;2022-09-20T08:27:58;94078.03;;;12.41;55.90
61345;BME280;47216;42.656;23.232;2022-09-20T08:30:25;94083.09;;;12.15;55.62
61345;BME280;47216;42.656;23.232;2022-09-20T08:32:52;94082.50;;;12.08;56.15
61345;BME280;47216;42.656;23.232;2022-09-20T08:35:20;94085.09;;;12.08;56.88
61345;BME280;47216;42.656;23.232;2022-09-20T08:37:50;94061.69;;;12.24;55.68
61345;BME280;47216;42.656;23.232;2022-09-20T08:40:19;94063.03;;;12.31;56.17
61345;BME280;47216;42.656;23.232;2022-09-20T08:42:50;94060.59;;;12.14;55.87
61345;BME280;47216;42.656;23.232;2022-09-20T08:45:20;94061.06;;;12.06;55.39
61345;BME280;47216;42.656;23.232;2022-09-20T08:47:50;94060.06;;;11.85;56.06
61345;BME280;47216;42.656;23.232;2022-09-20T08:50:18;94057.06;;;11.98;56.06
61345;BME280;47216;42.656;23.232;2022-09-20T08:52:46;94059.22;;;12.02;55.64
61345;BME280;47216;42.656;23.232;2022-09-20T08:55:16;94043.13;;;12.20;56.09
61345;BME280;47216;42.656;23.232;2022-09-20T08:57:47;94041.50;;;12.61;54.98
61345;BME280;47216;42.656;23.232;2022-09-20T09:00:18;94046.56;;;12.83;54.09
61345;BME280;47216;42.656;23.232;2022-09-20T09:02:45;94048.19;;;13.00;54.64
61345;BME280;47216;42.656;23.232;2022-09-20T09:05:27;94042.66;;;12.91;54.16
61345;BME280;47216;42.656;23.232;2022-09-20T09:07:56;94037.47;;;12.96;53.62
61345;BME280;47216;42.656;23.232;2022-09-20T09:10:26;94045.81;;;12.93;54.25
61345;BME280;47216;42.656;23.232;2022-09-20T09:12:55;94036.47;;;13.18;53.47
61345;BME280;47216;42.656;23.232;2022-09-20T09:15:28;94031.19;;;13.08;52.63
61345;BME280;47216;42.656;23.232;2022-09-20T09:17:57;94028.88;;;13.21;52.74
61345;BME280;47216;42.656;23.232;2022-09-20T09:20:24;94026.59;;;13.45;52.44
61345;BME280;47216;42.656;23.232;2022-09-20T09:22:59;94016.38;;;13.64;51.22
61345;BME280;47216;42.656;23.232;2022-09-20T09:25:49;94022.41;;;13.60;51.95
61345;BME280;47216;42.656;23.232;2022-09-20T09:28:22;94022.41;;;13.55;51.21
61345;BME280;47216;42.656;23.232;2022-09-20T09:31:11;94012.97;;;13.43;50.99
61345;BME280;47216;42.656;23.232;2022-09-20T09:33:42;94019.22;;;13.27;51.91
61345;BME280;47216;42.656;23.232;2022-09-20T09:36:13;94005.91;;;13.34;49.90
61345;BME280;47216;42.656;23.232;2022-09-20T09:38:42;94012.16;;;13.28;49.52
61345;BME280;47216;42.656;23.232;2022-09-20T09:41:21;94002.44;;;13.18;49.07
61345;BME280;47216;42.656;23.232;2022-09-20T09:43:57;94003.53;;;13.32;49.27
61345;BME280;47216;42.656;23.232;2022-09-20T09:46:30;94003.53;;;13.32;49.77
61345;BME280;47216;42.656;23.232;2022-09-20T09:49:07;94000.66;;;13.64;49.06
61345;BME280;47216;42.656;23.232;2022-09-20T09:51:35;94001.19;;;13.61;47.82
61345;BME280;47216;42.656;23.232;2022-09-20T09:54:03;94005.13;;;13.64;47.80
61345;BME280;47216;42.656;23.232;2022-09-20T09:56:51;93996.22;;;13.80;48.18
61345;BME280;47216;42.656;23.232;2022-09-20T09:59:35;93989.84;;;14.22;47.70
61345;BME280;47216;42.656;23.232;2022-09-20T10:02:28;94002.19;;;14.17;46.61
61345;BME280;47216;42.656;23.232;2022-09-20T10:05:04;93984.13;;;14.10;46.17
61345;BME280;47216;42.656;23.232;2022-09-20T10:07:40;93984.09;;;14.15;46.31
61345;BME280;47216;42.656;23.232;2022-09-20T10:10:19;93994.31;;;14.27;48.01
61345;BME280;47216;42.656;23.232;2022-09-20T10:12:56;93988.97;;;14.53;46.85
61345;BME280;47216;42.656;23.232;2022-09-20T10:15:33;93998.19;;;14.45;46.94
61345;BME280;47216;42.656;23.232;2022-09-20T10:18:29;93986.09;;;14.44;47.34
61345;BME280;47216;42.656;23.232;2022-09-20T10:21:09;93982.47;;;14.35;47.08
61345;BME280;47216;42.656;23.232;2022-09-20T10:23:51;93995.13;;;14.12;47.76
61345;BME280;47216;42.656;23.232;2022-09-20T10:26:37;93987.16;;;14.48;47.27
61345;BME280;47216;42.656;23.232;2022-09-20T10:29:15;93981.81;;;14.79;45.72
61345;BME280;47216;42.656;23.232;2022-09-20T10:31:55;93996.03;;;14.73;45.17
61345;BME280;47216;42.656;23.232;2022-09-20T10:35:06;93994.50;;;14.61;45.62
61345;BME280;47216;42.656;23.232;2022-09-20T10:37:45;93985.00;;;14.70;45.51
61345;BME280;47216;42.656;23.232;2022-09-20T10:40:24;93997.66;;;14.58;45.14
61345;BME280;47216;42.656;23.232;2022-09-20T10:43:27;93986.50;;;14.87;44.68
61345;BME280;47216;42.656;23.232;2022-09-20T10:46:07;93982.81;;;14.93;44.38
61345;BME280;47216;42.656;23.232;2022-09-20T10:48:40;93994.38;;;14.87;44.98
61345;BME280;47216;42.656;23.232;2022-09-20T10:51:17;94001.72;;;14.90;45.14
61345;BME280;47216;42.656;23.232;2022-09-20T10:53:56;93997.34;;;15.20;45.42
61345;BME280;47216;42.656;23.232;2022-09-20T10:56:29;94003.72;;;15.13;44.82
61345;BME280;47216;42.656;23.232;2022-09-20T10:59:15;93999.06;;;14.95;43.87
61345;BME280;47216;42.656;23.232;2022-09-20T11:01:57;94001.88;;;14.54;44.96
61345;BME280;47216;42.656;23.232;2022-09-20T11:04:55;93983.94;;;14.77;45.68
61345;BME280;47216;42.656;23.232;2022-09-20T11:07:39;93981.19;;;15.02;45.04
61345;BME280;47216;42.656;23.232;2022-09-20T11:10:15;93982.34;;;15.25;45.37
61345;BME280;47216;42.656;23.232;2022-09-20T11:12:50;93972.44;;;15.51;44.58
61345;BME280;47216;42.656;23.232;2022-09-20T11:15:22;93971.97;;;15.44;43.29
61345;BME280;47216;42.656;23.232;2022-09-20T11:17:58;93976.44;;;15.44;43.43
61345;BME280;47216;42.656;23.232;2022-09-20T11:20:28;93959.44;;;15.31;43.42
61345;BME280;47216;42.656;23.232;2022-09-20T11:23:01;93968.91;;;15.32;43.97
61345;BME280;47216;42.656;23.232;2022-09-20T11:25:35;93963.41;;;15.28;43.62
61345;BME280;47216;42.656;23.232;2022-09-20T11:28:10;93966.78;;;15.34;43.94
61345;BME280;47216;42.656;23.232;2022-09-20T11:30:43;93966.84;;;15.24;44.06
61345;BME280;47216;42.656;23.232;2022-09-20T11:33:20;93976.44;;;15.04;44.10
61345;BME280;47216;42.656;23.232;2022-09-20T11:35:51;93978.88;;;14.90;45.03
61345;BME280;47216;42.656;23.232;2022-09-20T11:38:26;93958.97;;;15.24;44.47
61345;BME280;47216;42.656;23.232;2022-09-20T11:40:57;93963.72;;;15.22;44.54
61345;BME280;47216;42.656;23.232;2022-09-20T11:43:26;93969.44;;;15.29;44.58
61345;BME280;47216;42.656;23.232;2022-09-20T11:45:59;93961.00;;;15.37;43.98
61345;BME280;47216;42.656;23.232;2022-09-20T11:48:29;93959.97;;;15.33;43.97
61345;BME280;47216;42.656;23.232;2022-09-20T11:54:17;93956.00;;;14.96;45.04
61345;BME280;47216;42.656;23.232;2022-09-20T11:56:54;93953.56;;;15.10;44.26
61345;BME280;47216;42.656;23.232;2022-09-20T11:59:27;93956.09;;;15.20;44.79
61345;BME280;47216;42.656;23.232;2022-09-20T12:01:56;93959.97;;;15.33;44.13
61345;BME280;47216;42.656;23.232;2022-09-20T12:04:28;93959.03;;;15.19;44.21
61345;BME280;47216;42.656;23.232;2022-09-20T12:06:58;93955.38;;;15.15;42.53
61345;BME280;47216;42.656;23.232;2022-09-20T12:09:31;93957.03;;;15.00;44.16
61345;BME280;47216;42.656;23.232;2022-09-20T12:12:13;93946.75;;;15.09;42.54
61345;BME280;47216;42.656;23.232;2022-09-20T12:14:41;93947.97;;;15.22;42.64
61345;BME280;47216;42.656;23.232;2022-09-20T12:21:00;93933.91;;;15.76;41.38
61345;BME280;47216;42.656;23.232;2022-09-20T12:26:44;93937.44;;;15.56;39.62
61345;BME280;47216;42.656;23.232;2022-09-20T12:32:31;93938.16;;;15.67;42.23
61345;BME280;47216;42.656;23.232;2022-09-20T12:34:58;93937.06;;;15.73;42.00
61345;BME280;47216;42.656;23.232;2022-09-20T12:37:25;93940.91;;;15.86;40.45
61345;BME280;47216;42.656;23.232;2022-09-20T12:39:54;93938.19;;;15.62;42.09
61345;BME280;47216;42.656;23.232;2022-09-20T12:42:28;93934.38;;;15.78;41.45
61345;BME280;47216;42.656;23.232;2022-09-20T12:44:59;93933.03;;;15.86;40.62
61345;BME280;47216;42.656;23.232;2022-09-20T12:47:28;93926.91;;;15.90;41.39
61345;BME280;47216;42.656;23.232;2022-09-20T12:49:58;93927.16;;;16.18;40.67
61345;BME280;47216;42.656;23.232;2022-09-20T12:52:52;93925.25;;;16.48;40.87
61345;BME280;47216;42.656;23.232;2022-09-20T12:55:37;93924.81;;;16.41;40.12
61345;BME280;47216;42.656;23.232;2022-09-20T12:58:18;93922.97;;;16.41;39.80
61345;BME280;47216;42.656;23.232;2022-09-20T13:00:49;93904.41;;;16.70;40.11
61345;BME280;47216;42.656;23.232;2022-09-20T13:03:26;93920.47;;;16.93;39.35
61345;BME280;47216;42.656;23.232;2022-09-20T13:06:22;93927.25;;;16.80;40.08
61345;BME280;47216;42.656;23.232;2022-09-20T13:08:53;93922.06;;;16.51;40.55
61345;BME280;47216;42.656;23.232;2022-09-20T13:11:23;93918.25;;;16.38;39.51
61345;BME280;47216;42.656;23.232;2022-09-20T13:13:56;93921.00;;;16.28;40.70
61345;BME280;47216;42.656;23.232;2022-09-20T13:16:28;93919.78;;;16.63;41.09
61345;BME280;47216;42.656;23.232;2022-09-20T13:19:01;93915.88;;;16.60;39.98
61345;BME280;47216;42.656;23.232;2022-09-20T13:21:30;93912.50;;;16.98;39.45
61345;BME280;47216;42.656;23.232;2022-09-20T13:23:57;93918.63;;;17.12;39.17
61345;BME280;47216;42.656;23.232;2022-09-20T13:26:29;93910.91;;;17.16;37.96
61345;BME280;47216;42.656;23.232;2022-09-20T13:29:01;93909.81;;;17.03;38.06
61345;BME280;47216;42.656;23.232;2022-09-20T13:31:31;93909.00;;;17.02;38.96
61345;BME280;47216;42.656;23.232;2022-09-20T13:34:27;93910.16;;;16.96;38.10
61345;BME280;47216;42.656;23.232;2022-09-20T13:36:56;93917.22;;;17.01;38.37
61345;BME280;47216;42.656;23.232;2022-09-20T13:39:31;93921.13;;;16.85;37.89
61345;BME280;47216;42.656;23.232;2022-09-20T13:42:04;93912.50;;;16.98;38.09
61345;BME280;47216;42.656;23.232;2022-09-20T13:44:34;93908.22;;;17.02;36.88
61345;BME280;47216;42.656;23.232;2022-09-20T13:47:19;93903.97;;;17.39;37.65
61345;BME280;47216;42.656;23.232;2022-09-20T13:49:46;93909.75;;;17.41;36.85
61345;BME280;47216;42.656;23.232;2022-09-20T13:52:24;93904.75;;;17.58;37.28
61345;BME280;47216;42.656;23.232;2022-09-20T13:54:51;93903.56;;;17.64;38.33
61345;BME280;47216;42.656;23.232;2022-09-20T13:57:21;93913.13;;;17.60;37.26
61345;BME280;47216;42.656;23.232;2022-09-20T13:59:50;93908.84;;;17.64;37.61
61345;BME280;47216;42.656;23.232;2022-09-20T14:02:21;93911.56;;;17.59;36.32
61345;BME280;47216;42.656;23.232;2022-09-20T14:04:50;93914.28;;;17.21;36.99
61345;BME280;47216;42.656;23.232;2022-09-20T14:07:19;93907.28;;;17.12;37.28